CES9978 ZLLL-ZLDH
Flight info
| Callsign | CES9978 |
|---|---|
| Flight time | 1h 18m |
| Altitude | 38100 |
| Route | LELUX8W LELUX B215 TODOD TODOD9 |
| Aircraft | B77W/H-SDE1E2E3FGHIJ2J3J4J5M1RWXY/LB1D1 |
Departure
| Time | 2026-04-23 10:13 |
|---|---|
| Airport | Lanzhou Zhongchuan International Airport (ZLLL) |
Arrival
| Time | 2026-04-23 11:31 |
|---|---|
| Airport | Dunhuang Mogao International Airport (ZLDH) |
| Time | Latitude | Longitude | Altitude | Speed | Heading |
|---|---|---|---|---|---|
| 2026-04-23 09:51 | 36.52886 | 103.63698 | 6405 ft | 0 kts | 154° |
| 2026-04-23 10:00 | 36.52895 | 103.63693 | 6404 ft | 2 kts | 154° |
| 2026-04-23 10:00 | 36.52908 | 103.63685 | 6404 ft | 2 kts | 154° |
| 2026-04-23 10:00 | 36.52922 | 103.63676 | 6404 ft | 2 kts | 155° |
| 2026-04-23 10:00 | 36.52936 | 103.63670 | 6404 ft | 2 kts | 175° |
| 2026-04-23 10:01 | 36.52951 | 103.63671 | 6404 ft | 2 kts | 201° |
| 2026-04-23 10:01 | 36.52964 | 103.63680 | 6404 ft | 2 kts | 224° |
| 2026-04-23 10:01 | 36.52972 | 103.63695 | 6404 ft | 2 kts | 247° |
| 2026-04-23 10:01 | 36.52976 | 103.63710 | 6404 ft | 0 kts | 267° |
| 2026-04-23 10:02 | 36.52976 | 103.63715 | 6404 ft | 0 kts | 268° |
| 2026-04-23 10:03 | 36.52976 | 103.63696 | 6404 ft | 4 kts | 268° |
| 2026-04-23 10:04 | 36.52974 | 103.63640 | 6404 ft | 9 kts | 268° |
| 2026-04-23 10:04 | 36.52969 | 103.63518 | 6404 ft | 18 kts | 267° |
| 2026-04-23 10:04 | 36.52961 | 103.63332 | 6404 ft | 25 kts | 267° |
| 2026-04-23 10:04 | 36.52950 | 103.63085 | 6403 ft | 31 kts | 267° |
| 2026-04-23 10:05 | 36.52938 | 103.62801 | 6403 ft | 33 kts | 268° |
| 2026-04-23 10:05 | 36.52927 | 103.62625 | 6403 ft | 11 kts | 240° |
| 2026-04-23 10:05 | 36.52835 | 103.62603 | 6403 ft | 17 kts | 180° |
| 2026-04-23 10:05 | 36.52689 | 103.62610 | 6403 ft | 24 kts | 177° |
| 2026-04-23 10:06 | 36.52500 | 103.62622 | 6403 ft | 30 kts | 176° |
| 2026-04-23 10:06 | 36.52274 | 103.62637 | 6403 ft | 35 kts | 178° |
| 2026-04-23 10:06 | 36.52008 | 103.62653 | 6403 ft | 40 kts | 178° |
| 2026-04-23 10:06 | 36.51756 | 103.62669 | 6403 ft | 33 kts | 177° |
| 2026-04-23 10:07 | 36.51534 | 103.62684 | 6403 ft | 29 kts | 178° |
| 2026-04-23 10:07 | 36.51336 | 103.62697 | 6403 ft | 27 kts | 177° |
| 2026-04-23 10:07 | 36.51154 | 103.62708 | 6403 ft | 24 kts | 177° |
| 2026-04-23 10:07 | 36.50992 | 103.62719 | 6403 ft | 22 kts | 176° |
| 2026-04-23 10:08 | 36.50845 | 103.62727 | 6403 ft | 19 kts | 176° |
| 2026-04-23 10:08 | 36.50713 | 103.62736 | 6403 ft | 17 kts | 178° |
| 2026-04-23 10:08 | 36.50596 | 103.62743 | 6403 ft | 16 kts | 178° |
| 2026-04-23 10:09 | 36.50392 | 103.62756 | 6403 ft | 14 kts | 177° |
| 2026-04-23 10:09 | 36.50285 | 103.62763 | 6403 ft | 16 kts | 177° |
| 2026-04-23 10:09 | 36.50164 | 103.62771 | 6403 ft | 19 kts | 178° |
| 2026-04-23 10:09 | 36.50015 | 103.62781 | 6403 ft | 23 kts | 177° |
| 2026-04-23 10:10 | 36.49838 | 103.62791 | 6403 ft | 27 kts | 176° |
| 2026-04-23 10:10 | 36.49653 | 103.62804 | 6403 ft | 17 kts | 176° |
| 2026-04-23 10:10 | 36.49591 | 103.62792 | 6403 ft | 6 kts | 238° |
| 2026-04-23 10:10 | 36.49583 | 103.62754 | 6403 ft | 3 kts | 264° |
| 2026-04-23 10:11 | 36.49579 | 103.62707 | 6403 ft | 6 kts | 264° |
| 2026-04-23 10:11 | 36.49575 | 103.62655 | 6403 ft | 6 kts | 264° |
| 2026-04-23 10:11 | 36.49588 | 103.62619 | 6403 ft | 5 kts | 332° |
| 2026-04-23 10:11 | 36.49625 | 103.62608 | 6403 ft | 5 kts | 352° |
| 2026-04-23 10:12 | 36.49657 | 103.62602 | 6403 ft | 0 kts | 356° |
| 2026-04-23 10:12 | 36.49661 | 103.62602 | 6403 ft | 2 kts | 356° |
| 2026-04-23 10:12 | 36.49855 | 103.62590 | 6403 ft | 64 kts | 357° |
| 2026-04-23 10:12 | 36.50570 | 103.62544 | 6403 ft | 139 kts | 357° |
| 2026-04-23 10:13 | 36.51756 | 103.62466 | 6505 ft | 194 kts | 360° |
| 2026-04-23 10:13 | 36.53111 | 103.62382 | 7306 ft | 201 kts | 360° |
| 2026-04-23 10:13 | 36.54530 | 103.62297 | 8077 ft | 208 kts | 359° |
| 2026-04-23 10:13 | 36.56043 | 103.62203 | 8562 ft | 225 kts | 359° |
| 2026-04-23 10:14 | 36.57652 | 103.62103 | 9062 ft | 241 kts | 359° |
| 2026-04-23 10:14 | 36.59378 | 103.61998 | 9564 ft | 258 kts | 359° |
| 2026-04-23 10:14 | 36.61232 | 103.61880 | 10194 ft | 270 kts | 358° |
| 2026-04-23 10:14 | 36.63113 | 103.61761 | 10877 ft | 282 kts | 358° |
| 2026-04-23 10:15 | 36.65140 | 103.61633 | 11506 ft | 298 kts | 358° |
| 2026-04-23 10:15 | 36.67244 | 103.61449 | 12138 ft | 313 kts | 355° |
| 2026-04-23 10:15 | 36.69463 | 103.61179 | 12765 ft | 329 kts | 355° |
| 2026-04-23 10:15 | 36.71818 | 103.60897 | 13401 ft | 345 kts | 355° |
| 2026-04-23 10:16 | 36.74224 | 103.60624 | 14019 ft | 359 kts | 355° |
| 2026-04-23 10:16 | 36.76774 | 103.60447 | 14645 ft | 374 kts | 357° |
| 2026-04-23 10:16 | 36.79429 | 103.60294 | 15314 ft | 387 kts | 356° |
| 2026-04-23 10:16 | 36.82147 | 103.60027 | 16163 ft | 393 kts | 350° |
| 2026-04-23 10:17 | 36.84793 | 103.59215 | 17081 ft | 397 kts | 340° |
| 2026-04-23 10:17 | 36.87310 | 103.57823 | 17994 ft | 399 kts | 330° |
| 2026-04-23 10:17 | 36.89628 | 103.55890 | 18885 ft | 402 kts | 321° |
| 2026-04-23 10:17 | 36.91508 | 103.53994 | 19652 ft | 405 kts | 319° |
| 2026-04-23 10:18 | 36.93687 | 103.51756 | 20537 ft | 408 kts | 319° |
| 2026-04-23 10:18 | 36.95874 | 103.49500 | 21368 ft | 412 kts | 319° |
| 2026-04-23 10:18 | 36.98093 | 103.47218 | 22145 ft | 416 kts | 319° |
| 2026-04-23 10:18 | 37.00359 | 103.44886 | 22892 ft | 420 kts | 319° |
| 2026-04-23 10:19 | 37.02595 | 103.42584 | 23598 ft | 424 kts | 319° |
| 2026-04-23 10:19 | 37.04890 | 103.40221 | 24296 ft | 428 kts | 318° |
| 2026-04-23 10:19 | 37.07193 | 103.37847 | 24959 ft | 432 kts | 318° |
| 2026-04-23 10:19 | 37.09497 | 103.35471 | 25618 ft | 436 kts | 318° |
| 2026-04-23 10:20 | 37.11809 | 103.33029 | 26635 ft | 429 kts | 314° |
| 2026-04-23 10:20 | 37.13812 | 103.30325 | 27540 ft | 424 kts | 306° |
| 2026-04-23 10:20 | 37.15464 | 103.27287 | 28200 ft | 425 kts | 298° |
| 2026-04-23 10:20 | 37.16753 | 103.23888 | 28744 ft | 429 kts | 289° |
| 2026-04-23 10:21 | 37.17661 | 103.20372 | 29289 ft | 434 kts | 286° |
| 2026-04-23 10:21 | 37.18531 | 103.16701 | 30021 ft | 435 kts | 286° |
| 2026-04-23 10:21 | 37.19384 | 103.13113 | 30890 ft | 432 kts | 286° |
| 2026-04-23 10:21 | 37.20231 | 103.09544 | 31732 ft | 428 kts | 286° |
| 2026-04-23 10:22 | 37.21096 | 103.05929 | 32114 ft | 431 kts | 286° |
| 2026-04-23 10:22 | 37.21959 | 103.02325 | 32139 ft | 429 kts | 286° |
| 2026-04-23 10:22 | 37.23670 | 102.95184 | 32131 ft | 423 kts | 287° |
| 2026-04-23 10:23 | 37.25407 | 102.87929 | 32170 ft | 441 kts | 287° |
| 2026-04-23 10:23 | 37.26305 | 102.84168 | 32197 ft | 453 kts | 287° |
| 2026-04-23 10:23 | 37.27208 | 102.80388 | 32197 ft | 459 kts | 287° |
| 2026-04-23 10:24 | 37.29032 | 102.72732 | 32195 ft | 457 kts | 287° |
| 2026-04-23 10:24 | 37.30851 | 102.65070 | 32193 ft | 456 kts | 287° |
| 2026-04-23 10:25 | 37.32658 | 102.57441 | 32193 ft | 456 kts | 287° |
| 2026-04-23 10:25 | 37.34455 | 102.49833 | 32188 ft | 455 kts | 287° |
| 2026-04-23 10:26 | 37.36241 | 102.42178 | 32182 ft | 455 kts | 285° |
| 2026-04-23 10:26 | 37.37756 | 102.34438 | 32188 ft | 455 kts | 284° |
| 2026-04-23 10:27 | 37.39249 | 102.26727 | 32203 ft | 464 kts | 284° |
| 2026-04-23 10:27 | 37.40802 | 102.18734 | 32201 ft | 471 kts | 284° |
| 2026-04-23 10:28 | 37.42362 | 102.10703 | 32196 ft | 470 kts | 284° |
| 2026-04-23 10:28 | 37.43912 | 102.02703 | 32194 ft | 471 kts | 284° |
| 2026-04-23 10:29 | 37.45460 | 101.94696 | 32206 ft | 471 kts | 284° |
| 2026-04-23 10:29 | 37.47004 | 101.86687 | 32216 ft | 469 kts | 284° |
| 2026-04-23 10:30 | 37.48541 | 101.78670 | 32205 ft | 469 kts | 284° |
| 2026-04-23 10:30 | 37.50106 | 101.70712 | 32213 ft | 469 kts | 287° |
| 2026-04-23 10:31 | 37.52701 | 101.63281 | 32219 ft | 469 kts | 297° |
| 2026-04-23 10:31 | 37.55816 | 101.56010 | 32183 ft | 469 kts | 298° |
| 2026-04-23 10:32 | 37.58903 | 101.48790 | 32152 ft | 469 kts | 298° |
| 2026-04-23 10:32 | 37.61990 | 101.41534 | 32148 ft | 468 kts | 298° |
| 2026-04-23 10:33 | 37.65052 | 101.34324 | 32149 ft | 468 kts | 297° |
| 2026-04-23 10:33 | 37.68132 | 101.27052 | 32151 ft | 468 kts | 297° |
| 2026-04-23 10:34 | 37.71185 | 101.19823 | 32146 ft | 468 kts | 297° |
| 2026-04-23 10:34 | 37.74250 | 101.12549 | 32139 ft | 468 kts | 297° |
| 2026-04-23 10:35 | 37.77313 | 101.05271 | 32132 ft | 468 kts | 297° |
| 2026-04-23 10:35 | 37.80354 | 100.98015 | 32124 ft | 467 kts | 297° |
| 2026-04-23 10:36 | 37.83402 | 100.90739 | 32112 ft | 467 kts | 298° |
| 2026-04-23 10:36 | 37.86593 | 100.83594 | 32102 ft | 467 kts | 299° |
| 2026-04-23 10:37 | 37.89799 | 100.76440 | 32091 ft | 466 kts | 299° |
| 2026-04-23 10:37 | 37.93009 | 100.69248 | 32077 ft | 466 kts | 299° |
| 2026-04-23 10:38 | 37.96201 | 100.62070 | 32060 ft | 466 kts | 299° |
| 2026-04-23 10:38 | 37.99361 | 100.54942 | 32054 ft | 468 kts | 299° |
| 2026-04-23 10:39 | 38.00982 | 100.51277 | 32265 ft | 471 kts | 299° |
| 2026-04-23 10:39 | 38.02570 | 100.47684 | 32559 ft | 470 kts | 299° |
| 2026-04-23 10:39 | 38.04155 | 100.44093 | 32751 ft | 468 kts | 299° |
| 2026-04-23 10:39 | 38.05749 | 100.40479 | 32911 ft | 468 kts | 299° |
| 2026-04-23 10:40 | 38.07339 | 100.36868 | 33043 ft | 470 kts | 299° |
| 2026-04-23 10:40 | 38.08947 | 100.33215 | 33255 ft | 473 kts | 298° |
| 2026-04-23 10:40 | 38.10538 | 100.29591 | 33698 ft | 471 kts | 298° |
| 2026-04-23 10:40 | 38.12132 | 100.25960 | 34126 ft | 470 kts | 298° |
| 2026-04-23 10:41 | 38.15281 | 100.18772 | 34175 ft | 465 kts | 298° |
| 2026-04-23 10:41 | 38.18413 | 100.11605 | 34168 ft | 463 kts | 298° |
| 2026-04-23 10:42 | 38.21545 | 100.04428 | 34162 ft | 463 kts | 299° |
| 2026-04-23 10:42 | 38.24662 | 99.97264 | 34162 ft | 463 kts | 299° |
| 2026-04-23 10:43 | 38.27776 | 99.90092 | 34296 ft | 463 kts | 299° |
| 2026-04-23 10:43 | 38.30876 | 99.82931 | 34439 ft | 459 kts | 299° |
| 2026-04-23 10:44 | 38.32418 | 99.79366 | 34546 ft | 456 kts | 299° |
| 2026-04-23 10:44 | 38.33937 | 99.75852 | 34456 ft | 454 kts | 299° |
| 2026-04-23 10:44 | 38.35438 | 99.72372 | 34194 ft | 455 kts | 299° |
| 2026-04-23 10:44 | 38.36975 | 99.68803 | 33932 ft | 456 kts | 299° |
| 2026-04-23 10:45 | 38.40013 | 99.61743 | 33858 ft | 457 kts | 299° |
| 2026-04-23 10:45 | 38.43067 | 99.54629 | 33864 ft | 457 kts | 299° |
| 2026-04-23 10:46 | 38.46110 | 99.47527 | 33870 ft | 458 kts | 299° |
| 2026-04-23 10:46 | 38.49147 | 99.40422 | 33877 ft | 458 kts | 299° |
| 2026-04-23 10:47 | 38.52209 | 99.33242 | 33884 ft | 458 kts | 298° |
| 2026-04-23 10:47 | 38.54954 | 99.26791 | 33890 ft | 458 kts | 298° |
| 2026-04-23 10:48 | 38.58001 | 99.19615 | 33905 ft | 457 kts | 298° |
| 2026-04-23 10:48 | 38.61010 | 99.12509 | 33931 ft | 458 kts | 298° |
| 2026-04-23 10:49 | 38.64040 | 99.05338 | 33955 ft | 458 kts | 299° |
| 2026-04-23 10:49 | 38.67061 | 98.98178 | 33977 ft | 458 kts | 299° |
| 2026-04-23 10:50 | 38.70075 | 98.91018 | 33991 ft | 458 kts | 299° |
| 2026-04-23 10:50 | 38.73094 | 98.83824 | 34006 ft | 458 kts | 299° |
| 2026-04-23 10:51 | 38.76098 | 98.76649 | 34022 ft | 457 kts | 299° |
| 2026-04-23 10:51 | 38.79097 | 98.69470 | 34039 ft | 457 kts | 299° |
| 2026-04-23 10:52 | 38.82077 | 98.62323 | 34061 ft | 457 kts | 299° |
| 2026-04-23 10:52 | 38.85065 | 98.55138 | 34074 ft | 457 kts | 299° |
| 2026-04-23 10:53 | 38.88061 | 98.47913 | 34086 ft | 458 kts | 299° |
| 2026-04-23 10:53 | 38.91025 | 98.40756 | 34099 ft | 457 kts | 299° |
| 2026-04-23 10:54 | 38.94017 | 98.33514 | 34120 ft | 457 kts | 298° |
| 2026-04-23 10:54 | 38.94519 | 98.32295 | 34126 ft | 457 kts | 298° |
| 2026-04-23 10:55 | 38.99666 | 98.19790 | 34150 ft | 458 kts | 298° |
| 2026-04-23 10:55 | 39.02639 | 98.12544 | 34153 ft | 458 kts | 298° |
| 2026-04-23 10:56 | 39.04115 | 98.08939 | 34052 ft | 448 kts | 298° |
| 2026-04-23 10:56 | 39.05558 | 98.05408 | 33406 ft | 445 kts | 298° |
| 2026-04-23 10:56 | 39.06992 | 98.01899 | 32857 ft | 445 kts | 299° |
| 2026-04-23 10:56 | 39.08425 | 97.98388 | 32433 ft | 435 kts | 299° |
| 2026-04-23 10:57 | 39.09806 | 97.94998 | 32124 ft | 424 kts | 299° |
| 2026-04-23 10:57 | 39.11169 | 97.91652 | 31870 ft | 416 kts | 299° |
| 2026-04-23 10:57 | 39.12508 | 97.88360 | 31728 ft | 417 kts | 299° |
| 2026-04-23 10:57 | 39.13866 | 97.85019 | 31560 ft | 419 kts | 299° |
| 2026-04-23 10:58 | 39.15202 | 97.81727 | 31394 ft | 418 kts | 299° |
| 2026-04-23 10:58 | 39.16557 | 97.78386 | 31204 ft | 417 kts | 299° |
| 2026-04-23 10:58 | 39.17884 | 97.75111 | 30953 ft | 418 kts | 299° |
| 2026-04-23 10:58 | 39.19227 | 97.71790 | 30700 ft | 419 kts | 299° |
| 2026-04-23 10:59 | 39.20578 | 97.68452 | 30310 ft | 422 kts | 299° |
| 2026-04-23 10:59 | 39.21932 | 97.65103 | 29924 ft | 422 kts | 299° |
| 2026-04-23 10:59 | 39.23292 | 97.61727 | 29539 ft | 422 kts | 299° |
| 2026-04-23 10:59 | 39.24653 | 97.58363 | 29153 ft | 424 kts | 299° |
| 2026-04-23 11:00 | 39.26013 | 97.54994 | 28768 ft | 425 kts | 299° |
| 2026-04-23 11:00 | 39.27361 | 97.51651 | 28386 ft | 422 kts | 299° |
| 2026-04-23 11:00 | 39.28721 | 97.48278 | 27982 ft | 419 kts | 299° |
| 2026-04-23 11:00 | 39.30046 | 97.44986 | 27616 ft | 414 kts | 299° |
| 2026-04-23 11:01 | 39.31352 | 97.41737 | 27307 ft | 404 kts | 299° |
| 2026-04-23 11:01 | 39.32630 | 97.38554 | 27001 ft | 394 kts | 299° |
| 2026-04-23 11:01 | 39.33864 | 97.35474 | 26700 ft | 384 kts | 299° |
| 2026-04-23 11:01 | 39.35092 | 97.32411 | 26402 ft | 375 kts | 299° |
| 2026-04-23 11:02 | 39.36277 | 97.29466 | 26109 ft | 369 kts | 298° |
| 2026-04-23 11:02 | 39.37452 | 97.26532 | 25816 ft | 368 kts | 299° |
| 2026-04-23 11:02 | 39.38614 | 97.23612 | 25525 ft | 369 kts | 298° |
| 2026-04-23 11:02 | 39.39799 | 97.20641 | 25257 ft | 367 kts | 298° |
| 2026-04-23 11:03 | 39.40957 | 97.17748 | 25013 ft | 366 kts | 298° |
| 2026-04-23 11:03 | 39.42123 | 97.14823 | 24766 ft | 366 kts | 298° |
| 2026-04-23 11:03 | 39.43279 | 97.11922 | 24523 ft | 365 kts | 298° |
| 2026-04-23 11:03 | 39.44445 | 97.08993 | 24276 ft | 364 kts | 298° |
| 2026-04-23 11:04 | 39.45600 | 97.06088 | 24031 ft | 363 kts | 298° |
| 2026-04-23 11:04 | 39.46753 | 97.03184 | 23785 ft | 362 kts | 298° |
| 2026-04-23 11:04 | 39.47906 | 97.00299 | 23538 ft | 362 kts | 299° |
| 2026-04-23 11:04 | 39.49052 | 96.97448 | 23296 ft | 360 kts | 299° |
| 2026-04-23 11:05 | 39.50201 | 96.94584 | 23051 ft | 359 kts | 299° |
| 2026-04-23 11:05 | 39.51349 | 96.91721 | 22805 ft | 359 kts | 299° |
| 2026-04-23 11:05 | 39.52504 | 96.88841 | 22557 ft | 357 kts | 299° |
| 2026-04-23 11:05 | 39.53643 | 96.85995 | 22310 ft | 356 kts | 299° |
| 2026-04-23 11:06 | 39.55903 | 96.80331 | 21812 ft | 353 kts | 298° |
| 2026-04-23 11:06 | 39.57029 | 96.77508 | 21551 ft | 352 kts | 298° |
| 2026-04-23 11:06 | 39.58147 | 96.74699 | 21292 ft | 352 kts | 298° |
| 2026-04-23 11:07 | 39.59264 | 96.71899 | 21032 ft | 351 kts | 298° |
| 2026-04-23 11:07 | 39.60375 | 96.69104 | 20776 ft | 350 kts | 298° |
| 2026-04-23 11:07 | 39.61477 | 96.66331 | 20529 ft | 349 kts | 298° |
| 2026-04-23 11:07 | 39.62584 | 96.63551 | 20279 ft | 347 kts | 298° |
| 2026-04-23 11:08 | 39.63696 | 96.60747 | 20030 ft | 346 kts | 298° |
| 2026-04-23 11:08 | 39.64803 | 96.57999 | 19769 ft | 345 kts | 299° |
| 2026-04-23 11:08 | 39.65904 | 96.55255 | 19513 ft | 344 kts | 300° |
| 2026-04-23 11:08 | 39.67025 | 96.52525 | 19274 ft | 343 kts | 298° |
| 2026-04-23 11:09 | 39.68120 | 96.49767 | 19023 ft | 342 kts | 298° |
| 2026-04-23 11:09 | 39.69224 | 96.47053 | 18766 ft | 341 kts | 298° |
| 2026-04-23 11:09 | 39.70305 | 96.44363 | 18520 ft | 340 kts | 298° |
| 2026-04-23 11:09 | 39.71405 | 96.41637 | 18261 ft | 339 kts | 298° |
| 2026-04-23 11:10 | 39.72494 | 96.38907 | 18006 ft | 338 kts | 298° |
| 2026-04-23 11:10 | 39.73563 | 96.36227 | 17755 ft | 337 kts | 298° |
| 2026-04-23 11:10 | 39.74643 | 96.33525 | 17505 ft | 335 kts | 297° |
| 2026-04-23 11:10 | 39.75711 | 96.30857 | 17261 ft | 334 kts | 297° |
| 2026-04-23 11:11 | 39.76772 | 96.28200 | 17016 ft | 333 kts | 297° |
| 2026-04-23 11:11 | 39.77841 | 96.25531 | 16769 ft | 331 kts | 297° |
| 2026-04-23 11:11 | 39.78902 | 96.22866 | 16521 ft | 330 kts | 297° |
| 2026-04-23 11:11 | 39.79949 | 96.20215 | 16273 ft | 329 kts | 297° |
| 2026-04-23 11:12 | 39.80997 | 96.17586 | 16025 ft | 328 kts | 297° |
| 2026-04-23 11:12 | 39.82045 | 96.14957 | 15780 ft | 327 kts | 297° |
| 2026-04-23 11:12 | 39.83078 | 96.12363 | 15663 ft | 325 kts | 297° |
| 2026-04-23 11:12 | 39.84106 | 96.09768 | 15652 ft | 321 kts | 297° |
| 2026-04-23 11:13 | 39.85110 | 96.07250 | 15647 ft | 305 kts | 297° |
| 2026-04-23 11:13 | 39.86072 | 96.04830 | 15649 ft | 294 kts | 297° |
| 2026-04-23 11:13 | 39.87002 | 96.02477 | 15574 ft | 294 kts | 297° |
| 2026-04-23 11:13 | 39.87931 | 96.00126 | 15340 ft | 292 kts | 297° |
| 2026-04-23 11:14 | 39.88854 | 95.97782 | 15093 ft | 288 kts | 297° |
| 2026-04-23 11:14 | 39.89766 | 95.95482 | 14848 ft | 287 kts | 297° |
| 2026-04-23 11:14 | 39.90666 | 95.93196 | 14604 ft | 286 kts | 297° |
| 2026-04-23 11:14 | 39.91581 | 95.90889 | 14354 ft | 285 kts | 297° |
| 2026-04-23 11:15 | 39.92475 | 95.88615 | 14104 ft | 284 kts | 297° |
| 2026-04-23 11:15 | 39.93376 | 95.86330 | 13857 ft | 283 kts | 297° |
| 2026-04-23 11:15 | 39.94273 | 95.84058 | 13610 ft | 282 kts | 296° |
| 2026-04-23 11:15 | 39.95167 | 95.81782 | 13360 ft | 281 kts | 297° |
| 2026-04-23 11:16 | 39.96072 | 95.79502 | 13108 ft | 280 kts | 296° |
| 2026-04-23 11:16 | 39.96937 | 95.77259 | 12861 ft | 279 kts | 295° |
| 2026-04-23 11:16 | 39.97768 | 95.74991 | 12611 ft | 278 kts | 295° |
| 2026-04-23 11:16 | 39.98602 | 95.72722 | 12362 ft | 277 kts | 295° |
| 2026-04-23 11:17 | 39.99447 | 95.70458 | 12110 ft | 276 kts | 295° |
| 2026-04-23 11:17 | 40.00282 | 95.68201 | 11859 ft | 275 kts | 295° |
| 2026-04-23 11:17 | 40.01091 | 95.65964 | 11611 ft | 275 kts | 295° |
| 2026-04-23 11:17 | 40.01919 | 95.63717 | 11362 ft | 275 kts | 295° |
| 2026-04-23 11:18 | 40.02753 | 95.61477 | 11112 ft | 274 kts | 295° |
| 2026-04-23 11:18 | 40.03579 | 95.59244 | 10861 ft | 273 kts | 295° |
| 2026-04-23 11:18 | 40.04393 | 95.57025 | 10612 ft | 272 kts | 295° |
| 2026-04-23 11:18 | 40.05208 | 95.54810 | 10364 ft | 271 kts | 295° |
| 2026-04-23 11:19 | 40.06029 | 95.52573 | 10111 ft | 270 kts | 295° |
| 2026-04-23 11:19 | 40.06830 | 95.50378 | 9857 ft | 270 kts | 295° |
| 2026-04-23 11:19 | 40.07645 | 95.48173 | 9605 ft | 269 kts | 298° |
| 2026-04-23 11:19 | 40.08685 | 95.46143 | 9351 ft | 265 kts | 308° |
| 2026-04-23 11:20 | 40.09849 | 95.44314 | 9103 ft | 261 kts | 309° |
| 2026-04-23 11:20 | 40.11004 | 95.42506 | 8862 ft | 256 kts | 309° |
| 2026-04-23 11:20 | 40.12120 | 95.40760 | 8803 ft | 245 kts | 309° |
| 2026-04-23 11:20 | 40.13171 | 95.39089 | 8791 ft | 229 kts | 309° |
| 2026-04-23 11:21 | 40.14148 | 95.37546 | 8786 ft | 213 kts | 309° |
| 2026-04-23 11:21 | 40.15062 | 95.36105 | 8800 ft | 198 kts | 309° |
| 2026-04-23 11:21 | 40.15922 | 95.34733 | 8794 ft | 194 kts | 309° |
| 2026-04-23 11:21 | 40.16777 | 95.33374 | 8747 ft | 193 kts | 309° |
| 2026-04-23 11:22 | 40.17624 | 95.32041 | 8557 ft | 186 kts | 309° |
| 2026-04-23 11:22 | 40.18428 | 95.30770 | 8368 ft | 179 kts | 309° |
| 2026-04-23 11:22 | 40.19163 | 95.29488 | 8173 ft | 172 kts | 298° |
| 2026-04-23 11:22 | 40.19598 | 95.28062 | 7969 ft | 168 kts | 284° |
| 2026-04-23 11:23 | 40.19634 | 95.27850 | 7945 ft | 167 kts | 282° |
| 2026-04-23 11:23 | 40.19704 | 95.26481 | 7762 ft | 164 kts | 268° |
| 2026-04-23 11:23 | 40.19572 | 95.25025 | 7573 ft | 160 kts | 266° |
| 2026-04-23 11:23 | 40.19449 | 95.23609 | 7416 ft | 155 kts | 267° |
| 2026-04-23 11:24 | 40.19345 | 95.22192 | 7272 ft | 155 kts | 267° |
| 2026-04-23 11:24 | 40.19241 | 95.20805 | 7134 ft | 156 kts | 267° |
| 2026-04-23 11:24 | 40.19134 | 95.19405 | 6986 ft | 153 kts | 268° |
| 2026-04-23 11:24 | 40.19030 | 95.18020 | 6849 ft | 154 kts | 267° |
| 2026-04-23 11:25 | 40.18926 | 95.16639 | 6823 ft | 153 kts | 268° |
| 2026-04-23 11:25 | 40.18817 | 95.15242 | 6812 ft | 154 kts | 267° |
| 2026-04-23 11:25 | 40.18710 | 95.13850 | 6818 ft | 153 kts | 268° |
| 2026-04-23 11:25 | 40.18610 | 95.12469 | 6813 ft | 154 kts | 268° |
| 2026-04-23 11:26 | 40.18509 | 95.11078 | 6817 ft | 153 kts | 267° |
| 2026-04-23 11:26 | 40.18405 | 95.09697 | 6816 ft | 153 kts | 267° |
| 2026-04-23 11:26 | 40.18301 | 95.08304 | 6825 ft | 153 kts | 267° |
| 2026-04-23 11:26 | 40.18195 | 95.06913 | 6820 ft | 153 kts | 267° |
| 2026-04-23 11:27 | 40.18086 | 95.05524 | 6814 ft | 152 kts | 267° |
| 2026-04-23 11:27 | 40.17979 | 95.04133 | 6789 ft | 155 kts | 268° |
| 2026-04-23 11:27 | 40.17871 | 95.02735 | 6590 ft | 153 kts | 267° |
| 2026-04-23 11:27 | 40.17764 | 95.01346 | 6399 ft | 154 kts | 268° |
| 2026-04-23 11:28 | 40.17657 | 94.99943 | 6203 ft | 154 kts | 268° |
| 2026-04-23 11:28 | 40.17551 | 94.98576 | 6006 ft | 153 kts | 267° |
| 2026-04-23 11:28 | 40.17444 | 94.97189 | 5811 ft | 152 kts | 267° |
| 2026-04-23 11:28 | 40.17339 | 94.95804 | 5607 ft | 152 kts | 267° |
| 2026-04-23 11:29 | 40.17230 | 94.94441 | 5406 ft | 148 kts | 267° |
| 2026-04-23 11:29 | 40.17124 | 94.93106 | 5212 ft | 146 kts | 268° |
| 2026-04-23 11:29 | 40.17025 | 94.91798 | 5018 ft | 146 kts | 268° |
| 2026-04-23 11:29 | 40.16922 | 94.90494 | 4822 ft | 143 kts | 267° |
| 2026-04-23 11:30 | 40.16821 | 94.89194 | 4629 ft | 141 kts | 268° |
| 2026-04-23 11:30 | 40.16721 | 94.87914 | 4438 ft | 141 kts | 268° |
| 2026-04-23 11:30 | 40.16620 | 94.86644 | 4247 ft | 141 kts | 268° |
| 2026-04-23 11:30 | 40.16519 | 94.85368 | 4054 ft | 142 kts | 268° |
| 2026-04-23 11:31 | 40.16422 | 94.84090 | 3873 ft | 141 kts | 267° |
| 2026-04-23 11:31 | 40.16314 | 94.82825 | 3709 ft | 135 kts | 267° |
| 2026-04-23 11:31 | 40.16235 | 94.81769 | 3707 ft | 91 kts | 265° |
| 2026-04-23 11:31 | 40.16189 | 94.81181 | 3707 ft | 39 kts | 265° |
| 2026-04-23 11:32 | 40.16169 | 94.80911 | 3707 ft | 27 kts | 265° |
| 2026-04-23 11:32 | 40.16164 | 94.80716 | 3707 ft | 15 kts | 304° |
| 2026-04-23 11:32 | 40.16256 | 94.80679 | 3707 ft | 7 kts | 352° |